sensor_id;sensor_type;location;lat;lon;timestamp;P1;durP1;ratioP1;P2;durP2;ratioP2
59824;SDS011;45703;50.898;6.054;2022-12-05T00:00:12;21.60;;;11.95;;
59824;SDS011;45703;50.898;6.054;2022-12-05T00:02:38;22.20;;;11.35;;
59824;SDS011;45703;50.898;6.054;2022-12-05T00:05:03;23.52;;;11.57;;
59824;SDS011;45703;50.898;6.054;2022-12-05T00:07:29;24.30;;;12.98;;
59824;SDS011;45703;50.898;6.054;2022-12-05T00:09:55;24.20;;;11.02;;
59824;SDS011;45703;50.898;6.054;2022-12-05T00:12:20;24.70;;;12.80;;
59824;SDS011;45703;50.898;6.054;2022-12-05T00:14:45;22.65;;;12.75;;
59824;SDS011;45703;50.898;6.054;2022-12-05T00:17:11;23.48;;;12.57;;
59824;SDS011;45703;50.898;6.054;2022-12-05T00:19:36;25.83;;;13.27;;
59824;SDS011;45703;50.898;6.054;2022-12-05T00:22:02;24.50;;;13.57;;
59824;SDS011;45703;50.898;6.054;2022-12-05T00:24:28;24.45;;;13.45;;
59824;SDS011;45703;50.898;6.054;2022-12-05T00:26:53;25.52;;;12.73;;
59824;SDS011;45703;50.898;6.054;2022-12-05T00:29:18;27.48;;;14.30;;
59824;SDS011;45703;50.898;6.054;2022-12-05T00:31:44;24.33;;;13.30;;
59824;SDS011;45703;50.898;6.054;2022-12-05T00:34:09;23.20;;;13.07;;
59824;SDS011;45703;50.898;6.054;2022-12-05T00:36:35;22.95;;;13.05;;
59824;SDS011;45703;50.898;6.054;2022-12-05T00:39:02;25.33;;;13.43;;
59824;SDS011;45703;50.898;6.054;2022-12-05T00:41:30;26.13;;;14.43;;
59824;SDS011;45703;50.898;6.054;2022-12-05T00:43:57;27.05;;;13.65;;
59824;SDS011;45703;50.898;6.054;2022-12-05T00:46:24;24.95;;;12.48;;
59824;SDS011;45703;50.898;6.054;2022-12-05T00:48:51;25.02;;;14.13;;
59824;SDS011;45703;50.898;6.054;2022-12-05T00:51:22;27.05;;;13.38;;
59824;SDS011;45703;50.898;6.054;2022-12-05T00:53:51;25.02;;;13.02;;
59824;SDS011;45703;50.898;6.054;2022-12-05T00:56:17;26.67;;;13.93;;
59824;SDS011;45703;50.898;6.054;2022-12-05T00:58:47;25.30;;;13.77;;
59824;SDS011;45703;50.898;6.054;2022-12-05T01:01:20;27.52;;;13.82;;
59824;SDS011;45703;50.898;6.054;2022-12-05T01:03:51;28.60;;;13.52;;
59824;SDS011;45703;50.898;6.054;2022-12-05T01:06:18;24.88;;;13.45;;
59824;SDS011;45703;50.898;6.054;2022-12-05T01:08:44;26.05;;;12.85;;
59824;SDS011;45703;50.898;6.054;2022-12-05T01:11:10;27.15;;;12.95;;
59824;SDS011;45703;50.898;6.054;2022-12-05T01:13:38;28.02;;;14.05;;
59824;SDS011;45703;50.898;6.054;2022-12-05T01:16:03;31.83;;;13.77;;
59824;SDS011;45703;50.898;6.054;2022-12-05T01:18:29;23.95;;;12.88;;
59824;SDS011;45703;50.898;6.054;2022-12-05T01:20:55;26.25;;;13.75;;
59824;SDS011;45703;50.898;6.054;2022-12-05T01:23:21;24.33;;;12.75;;
59824;SDS011;45703;50.898;6.054;2022-12-05T01:25:47;25.67;;;13.23;;
59824;SDS011;45703;50.898;6.054;2022-12-05T01:28:14;28.27;;;12.00;;
59824;SDS011;45703;50.898;6.054;2022-12-05T01:30:41;26.85;;;13.65;;
59824;SDS011;45703;50.898;6.054;2022-12-05T01:33:09;24.45;;;12.07;;
59824;SDS011;45703;50.898;6.054;2022-12-05T01:35:35;25.55;;;12.95;;
59824;SDS011;45703;50.898;6.054;2022-12-05T01:38:02;26.00;;;12.93;;
59824;SDS011;45703;50.898;6.054;2022-12-05T01:40:28;24.10;;;12.80;;
59824;SDS011;45703;50.898;6.054;2022-12-05T01:42:54;24.42;;;12.80;;
59824;SDS011;45703;50.898;6.054;2022-12-05T01:45:21;28.33;;;13.93;;
59824;SDS011;45703;50.898;6.054;2022-12-05T01:47:56;26.42;;;13.65;;
59824;SDS011;45703;50.898;6.054;2022-12-05T01:50:23;23.77;;;12.60;;
59824;SDS011;45703;50.898;6.054;2022-12-05T01:52:48;24.42;;;12.95;;
59824;SDS011;45703;50.898;6.054;2022-12-05T01:55:14;23.65;;;12.52;;
59824;SDS011;45703;50.898;6.054;2022-12-05T01:57:42;22.05;;;10.80;;
59824;SDS011;45703;50.898;6.054;2022-12-05T02:00:10;26.10;;;12.10;;
59824;SDS011;45703;50.898;6.054;2022-12-05T02:02:38;21.90;;;11.88;;
59824;SDS011;45703;50.898;6.054;2022-12-05T02:05:06;22.98;;;11.90;;
59824;SDS011;45703;50.898;6.054;2022-12-05T02:07:39;22.52;;;12.10;;
59824;SDS011;45703;50.898;6.054;2022-12-05T02:10:06;24.10;;;12.18;;
59824;SDS011;45703;50.898;6.054;2022-12-05T02:12:32;26.30;;;11.05;;
59824;SDS011;45703;50.898;6.054;2022-12-05T02:15:07;20.98;;;10.40;;
59824;SDS011;45703;50.898;6.054;2022-12-05T02:17:48;24.75;;;12.48;;
59824;SDS011;45703;50.898;6.054;2022-12-05T02:20:23;25.52;;;11.45;;
59824;SDS011;45703;50.898;6.054;2022-12-05T02:34:30;26.60;;;12.55;;
59824;SDS011;45703;50.898;6.054;2022-12-05T02:42:27;26.50;;;12.85;;
59824;SDS011;45703;50.898;6.054;2022-12-05T02:45:07;23.90;;;12.05;;
59824;SDS011;45703;50.898;6.054;2022-12-05T02:47:39;25.48;;;13.45;;
59824;SDS011;45703;50.898;6.054;2022-12-05T02:50:10;26.30;;;11.57;;
59824;SDS011;45703;50.898;6.054;2022-12-05T02:52:40;22.70;;;11.57;;
59824;SDS011;45703;50.898;6.054;2022-12-05T02:55:07;25.65;;;12.05;;
59824;SDS011;45703;50.898;6.054;2022-12-05T02:57:33;23.70;;;12.32;;
59824;SDS011;45703;50.898;6.054;2022-12-05T03:00:00;25.20;;;13.13;;
59824;SDS011;45703;50.898;6.054;2022-12-05T03:02:32;25.90;;;12.27;;
59824;SDS011;45703;50.898;6.054;2022-12-05T03:05:16;24.65;;;12.77;;
59824;SDS011;45703;50.898;6.054;2022-12-05T03:07:48;25.38;;;12.93;;
59824;SDS011;45703;50.898;6.054;2022-12-05T03:10:18;24.60;;;13.38;;
59824;SDS011;45703;50.898;6.054;2022-12-05T03:12:48;24.27;;;12.43;;
59824;SDS011;45703;50.898;6.054;2022-12-05T03:15:20;28.38;;;14.18;;
59824;SDS011;45703;50.898;6.054;2022-12-05T03:17:54;28.83;;;14.60;;
59824;SDS011;45703;50.898;6.054;2022-12-05T03:20:27;27.27;;;12.63;;
59824;SDS011;45703;50.898;6.054;2022-12-05T03:23:00;26.73;;;12.57;;
59824;SDS011;45703;50.898;6.054;2022-12-05T03:37:34;20.63;;;11.17;;
59824;SDS011;45703;50.898;6.054;2022-12-05T03:40:10;23.50;;;11.10;;
59824;SDS011;45703;50.898;6.054;2022-12-05T03:42:42;27.20;;;11.60;;
59824;SDS011;45703;50.898;6.054;2022-12-05T03:45:17;24.08;;;12.20;;
59824;SDS011;45703;50.898;6.054;2022-12-05T03:50:22;22.27;;;11.18;;
59824;SDS011;45703;50.898;6.054;2022-12-05T03:53:04;23.77;;;12.18;;
59824;SDS011;45703;50.898;6.054;2022-12-05T03:55:34;25.63;;;11.50;;
59824;SDS011;45703;50.898;6.054;2022-12-05T03:58:07;25.35;;;12.23;;
59824;SDS011;45703;50.898;6.054;2022-12-05T04:05:56;23.92;;;12.20;;
59824;SDS011;45703;50.898;6.054;2022-12-05T04:08:26;22.65;;;11.35;;
59824;SDS011;45703;50.898;6.054;2022-12-05T04:11:06;23.27;;;11.40;;
59824;SDS011;45703;50.898;6.054;2022-12-05T04:13:46;22.90;;;11.75;;
59824;SDS011;45703;50.898;6.054;2022-12-05T04:16:17;24.05;;;11.63;;
59824;SDS011;45703;50.898;6.054;2022-12-05T04:22:17;22.48;;;11.65;;
59824;SDS011;45703;50.898;6.054;2022-12-05T04:24:44;21.02;;;10.68;;
59824;SDS011;45703;50.898;6.054;2022-12-05T04:27:38;22.60;;;10.52;;
59824;SDS011;45703;50.898;6.054;2022-12-05T04:30:06;23.65;;;11.35;;
59824;SDS011;45703;50.898;6.054;2022-12-05T04:32:37;24.73;;;11.35;;
59824;SDS011;45703;50.898;6.054;2022-12-05T04:35:11;25.30;;;12.82;;
59824;SDS011;45703;50.898;6.054;2022-12-05T04:37:43;24.33;;;11.40;;
59824;SDS011;45703;50.898;6.054;2022-12-05T04:40:13;20.80;;;11.38;;
59824;SDS011;45703;50.898;6.054;2022-12-05T04:42:46;25.27;;;11.60;;
59824;SDS011;45703;50.898;6.054;2022-12-05T04:45:14;25.38;;;11.82;;
59824;SDS011;45703;50.898;6.054;2022-12-05T04:47:43;21.05;;;11.23;;
59824;SDS011;45703;50.898;6.054;2022-12-05T04:50:15;21.45;;;10.73;;
59824;SDS011;45703;50.898;6.054;2022-12-05T04:52:41;22.50;;;10.35;;
59824;SDS011;45703;50.898;6.054;2022-12-05T04:55:16;21.48;;;10.23;;
59824;SDS011;45703;50.898;6.054;2022-12-05T05:00:24;18.77;;;9.68;;
59824;SDS011;45703;50.898;6.054;2022-12-05T05:03:06;25.73;;;11.80;;
59824;SDS011;45703;50.898;6.054;2022-12-05T05:05:38;21.75;;;11.52;;
59824;SDS011;45703;50.898;6.054;2022-12-05T05:08:14;19.80;;;10.07;;
59824;SDS011;45703;50.898;6.054;2022-12-05T05:10:44;19.58;;;10.35;;
59824;SDS011;45703;50.898;6.054;2022-12-05T05:13:29;18.75;;;10.15;;
59824;SDS011;45703;50.898;6.054;2022-12-05T05:15:55;21.17;;;10.45;;
59824;SDS011;45703;50.898;6.054;2022-12-05T05:18:20;21.88;;;10.77;;
59824;SDS011;45703;50.898;6.054;2022-12-05T05:20:45;19.40;;;10.82;;
59824;SDS011;45703;50.898;6.054;2022-12-05T05:23:11;20.30;;;10.48;;
59824;SDS011;45703;50.898;6.054;2022-12-05T05:25:36;21.92;;;11.18;;
59824;SDS011;45703;50.898;6.054;2022-12-05T05:28:01;21.10;;;10.40;;
59824;SDS011;45703;50.898;6.054;2022-12-05T05:30:27;21.63;;;10.85;;
59824;SDS011;45703;50.898;6.054;2022-12-05T05:32:52;19.92;;;9.82;;
59824;SDS011;45703;50.898;6.054;2022-12-05T05:35:18;20.63;;;9.85;;
59824;SDS011;45703;50.898;6.054;2022-12-05T05:37:45;18.48;;;9.43;;
59824;SDS011;45703;50.898;6.054;2022-12-05T05:40:11;21.90;;;10.68;;
59824;SDS011;45703;50.898;6.054;2022-12-05T05:42:41;18.83;;;10.13;;
59824;SDS011;45703;50.898;6.054;2022-12-05T05:45:08;18.83;;;9.90;;
59824;SDS011;45703;50.898;6.054;2022-12-05T05:47:34;18.58;;;10.43;;
59824;SDS011;45703;50.898;6.054;2022-12-05T05:49:59;19.90;;;10.32;;
59824;SDS011;45703;50.898;6.054;2022-12-05T05:52:26;18.17;;;10.07;;
59824;SDS011;45703;50.898;6.054;2022-12-05T05:54:51;20.48;;;10.93;;
59824;SDS011;45703;50.898;6.054;2022-12-05T05:57:16;19.23;;;10.00;;
59824;SDS011;45703;50.898;6.054;2022-12-05T05:59:42;17.42;;;9.80;;
59824;SDS011;45703;50.898;6.054;2022-12-05T06:02:07;18.30;;;10.07;;
59824;SDS011;45703;50.898;6.054;2022-12-05T06:04:33;18.40;;;10.00;;
59824;SDS011;45703;50.898;6.054;2022-12-05T06:06:59;20.08;;;10.35;;
59824;SDS011;45703;50.898;6.054;2022-12-05T06:09:25;17.05;;;9.35;;
59824;SDS011;45703;50.898;6.054;2022-12-05T06:11:50;18.33;;;9.27;;
59824;SDS011;45703;50.898;6.054;2022-12-05T06:14:15;18.50;;;9.63;;
59824;SDS011;45703;50.898;6.054;2022-12-05T06:16:41;18.52;;;9.55;;
59824;SDS011;45703;50.898;6.054;2022-12-05T06:19:06;23.70;;;11.32;;
59824;SDS011;45703;50.898;6.054;2022-12-05T06:21:31;18.48;;;10.07;;
59824;SDS011;45703;50.898;6.054;2022-12-05T06:23:57;19.50;;;9.88;;
59824;SDS011;45703;50.898;6.054;2022-12-05T06:26:22;18.63;;;10.40;;
59824;SDS011;45703;50.898;6.054;2022-12-05T06:28:48;16.40;;;9.07;;
59824;SDS011;45703;50.898;6.054;2022-12-05T06:31:18;18.58;;;9.52;;
59824;SDS011;45703;50.898;6.054;2022-12-05T06:33:46;16.80;;;9.23;;
59824;SDS011;45703;50.898;6.054;2022-12-05T06:36:13;18.23;;;10.13;;
59824;SDS011;45703;50.898;6.054;2022-12-05T06:38:41;21.35;;;11.07;;
59824;SDS011;45703;50.898;6.054;2022-12-05T06:41:07;18.20;;;10.07;;
59824;SDS011;45703;50.898;6.054;2022-12-05T06:43:35;17.50;;;9.68;;
59824;SDS011;45703;50.898;6.054;2022-12-05T06:46:04;17.63;;;9.70;;
59824;SDS011;45703;50.898;6.054;2022-12-05T06:48:30;16.87;;;9.73;;
59824;SDS011;45703;50.898;6.054;2022-12-05T06:50:56;18.65;;;9.63;;
59824;SDS011;45703;50.898;6.054;2022-12-05T06:53:21;20.27;;;10.57;;
59824;SDS011;45703;50.898;6.054;2022-12-05T06:56:00;17.88;;;9.82;;
59824;SDS011;45703;50.898;6.054;2022-12-05T06:58:27;18.33;;;9.33;;
59824;SDS011;45703;50.898;6.054;2022-12-05T07:00:53;19.08;;;9.52;;
59824;SDS011;45703;50.898;6.054;2022-12-05T07:03:38;18.70;;;10.48;;
59824;SDS011;45703;50.898;6.054;2022-12-05T07:06:04;18.80;;;9.30;;
59824;SDS011;45703;50.898;6.054;2022-12-05T07:08:31;18.90;;;9.45;;
59824;SDS011;45703;50.898;6.054;2022-12-05T07:10:58;17.38;;;10.23;;
59824;SDS011;45703;50.898;6.054;2022-12-05T07:13:23;18.20;;;9.15;;
59824;SDS011;45703;50.898;6.054;2022-12-05T07:15:49;18.02;;;10.23;;
59824;SDS011;45703;50.898;6.054;2022-12-05T07:18:15;18.58;;;10.18;;
59824;SDS011;45703;50.898;6.054;2022-12-05T07:20:41;20.30;;;10.15;;
59824;SDS011;45703;50.898;6.054;2022-12-05T07:23:08;16.45;;;9.32;;
59824;SDS011;45703;50.898;6.054;2022-12-05T07:25:37;19.27;;;10.18;;
59824;SDS011;45703;50.898;6.054;2022-12-05T07:28:04;18.92;;;10.07;;
59824;SDS011;45703;50.898;6.054;2022-12-05T07:30:30;17.05;;;8.70;;
59824;SDS011;45703;50.898;6.054;2022-12-05T07:32:55;18.35;;;9.70;;
59824;SDS011;45703;50.898;6.054;2022-12-05T07:35:21;17.20;;;9.60;;
59824;SDS011;45703;50.898;6.054;2022-12-05T07:37:46;18.35;;;9.75;;
59824;SDS011;45703;50.898;6.054;2022-12-05T07:40:12;20.58;;;10.85;;
59824;SDS011;45703;50.898;6.054;2022-12-05T07:42:37;19.17;;;9.40;;
59824;SDS011;45703;50.898;6.054;2022-12-05T07:45:03;21.50;;;11.35;;
59824;SDS011;45703;50.898;6.054;2022-12-05T07:47:29;20.90;;;10.40;;
59824;SDS011;45703;50.898;6.054;2022-12-05T07:49:55;19.30;;;10.73;;
59824;SDS011;45703;50.898;6.054;2022-12-05T07:52:20;20.33;;;10.85;;
59824;SDS011;45703;50.898;6.054;2022-12-05T07:54:46;22.13;;;12.23;;
59824;SDS011;45703;50.898;6.054;2022-12-05T07:57:11;22.05;;;12.05;;
59824;SDS011;45703;50.898;6.054;2022-12-05T07:59:36;21.88;;;11.55;;
59824;SDS011;45703;50.898;6.054;2022-12-05T08:02:02;21.75;;;11.73;;
59824;SDS011;45703;50.898;6.054;2022-12-05T08:04:27;22.70;;;12.85;;
59824;SDS011;45703;50.898;6.054;2022-12-05T08:06:52;21.00;;;11.63;;
59824;SDS011;45703;50.898;6.054;2022-12-05T08:09:18;22.55;;;12.88;;
59824;SDS011;45703;50.898;6.054;2022-12-05T08:11:43;22.08;;;11.52;;
59824;SDS011;45703;50.898;6.054;2022-12-05T08:14:08;22.20;;;12.25;;
59824;SDS011;45703;50.898;6.054;2022-12-05T08:16:34;21.30;;;12.18;;
59824;SDS011;45703;50.898;6.054;2022-12-05T08:19:01;21.80;;;11.82;;
59824;SDS011;45703;50.898;6.054;2022-12-05T08:21:28;21.83;;;11.90;;
59824;SDS011;45703;50.898;6.054;2022-12-05T08:23:54;22.60;;;11.90;;
59824;SDS011;45703;50.898;6.054;2022-12-05T08:26:21;22.52;;;12.10;;
59824;SDS011;45703;50.898;6.054;2022-12-05T08:28:57;20.45;;;11.57;;
59824;SDS011;45703;50.898;6.054;2022-12-05T08:31:25;23.60;;;13.05;;
59824;SDS011;45703;50.898;6.054;2022-12-05T08:33:54;22.27;;;11.85;;
59824;SDS011;45703;50.898;6.054;2022-12-05T08:36:21;21.58;;;11.80;;
59824;SDS011;45703;50.898;6.054;2022-12-05T08:38:46;21.48;;;11.25;;
59824;SDS011;45703;50.898;6.054;2022-12-05T08:41:12;22.55;;;11.95;;
59824;SDS011;45703;50.898;6.054;2022-12-05T08:43:40;22.55;;;10.90;;
59824;SDS011;45703;50.898;6.054;2022-12-05T08:46:06;19.88;;;10.77;;
59824;SDS011;45703;50.898;6.054;2022-12-05T08:48:32;19.70;;;11.13;;
59824;SDS011;45703;50.898;6.054;2022-12-05T08:51:02;18.13;;;10.18;;
59824;SDS011;45703;50.898;6.054;2022-12-05T08:55:58;20.30;;;10.60;;
59824;SDS011;45703;50.898;6.054;2022-12-05T08:58:24;21.23;;;11.35;;
59824;SDS011;45703;50.898;6.054;2022-12-05T09:00:50;19.35;;;10.18;;
59824;SDS011;45703;50.898;6.054;2022-12-05T09:03:15;19.75;;;10.95;;
59824;SDS011;45703;50.898;6.054;2022-12-05T09:05:42;20.65;;;10.93;;
59824;SDS011;45703;50.898;6.054;2022-12-05T09:08:07;20.23;;;11.57;;
59824;SDS011;45703;50.898;6.054;2022-12-05T09:10:32;22.00;;;11.35;;
59824;SDS011;45703;50.898;6.054;2022-12-05T09:12:58;20.80;;;11.32;;
59824;SDS011;45703;50.898;6.054;2022-12-05T09:15:23;20.40;;;11.30;;
59824;SDS011;45703;50.898;6.054;2022-12-05T09:17:48;19.52;;;10.98;;
59824;SDS011;45703;50.898;6.054;2022-12-05T09:20:14;19.17;;;11.27;;
59824;SDS011;45703;50.898;6.054;2022-12-05T09:22:40;20.25;;;11.10;;
59824;SDS011;45703;50.898;6.054;2022-12-05T09:25:05;21.75;;;11.10;;
59824;SDS011;45703;50.898;6.054;2022-12-05T09:27:31;19.83;;;10.77;;
59824;SDS011;45703;50.898;6.054;2022-12-05T09:29:57;21.30;;;11.27;;
59824;SDS011;45703;50.898;6.054;2022-12-05T09:32:22;18.80;;;10.85;;
59824;SDS011;45703;50.898;6.054;2022-12-05T09:34:47;20.98;;;11.27;;
59824;SDS011;45703;50.898;6.054;2022-12-05T09:37:13;21.60;;;11.55;;
59824;SDS011;45703;50.898;6.054;2022-12-05T09:39:38;19.08;;;11.07;;
59824;SDS011;45703;50.898;6.054;2022-12-05T09:45:03;18.67;;;11.00;;
59824;SDS011;45703;50.898;6.054;2022-12-05T09:47:44;20.92;;;10.90;;
59824;SDS011;45703;50.898;6.054;2022-12-05T09:50:22;21.85;;;11.52;;
59824;SDS011;45703;50.898;6.054;2022-12-05T09:55:35;19.92;;;12.38;;
59824;SDS011;45703;50.898;6.054;2022-12-05T09:58:21;18.83;;;10.73;;
59824;SDS011;45703;50.898;6.054;2022-12-05T10:01:43;17.30;;;10.77;;
59824;SDS011;45703;50.898;6.054;2022-12-05T10:13:21;20.52;;;12.57;;
59824;SDS011;45703;50.898;6.054;2022-12-05T10:16:19;21.30;;;11.10;;
59824;SDS011;45703;50.898;6.054;2022-12-05T10:22:24;20.52;;;11.75;;
59824;SDS011;45703;50.898;6.054;2022-12-05T10:24:54;18.17;;;10.98;;
59824;SDS011;45703;50.898;6.054;2022-12-05T10:27:36;19.02;;;11.00;;
59824;SDS011;45703;50.898;6.054;2022-12-05T10:30:29;19.05;;;10.13;;
59824;SDS011;45703;50.898;6.054;2022-12-05T10:33:02;19.70;;;11.40;;
59824;SDS011;45703;50.898;6.054;2022-12-05T10:35:38;21.92;;;12.05;;
59824;SDS011;45703;50.898;6.054;2022-12-05T10:38:24;20.05;;;11.50;;
59824;SDS011;45703;50.898;6.054;2022-12-05T10:40:57;17.67;;;10.65;;
59824;SDS011;45703;50.898;6.054;2022-12-05T10:43:47;20.27;;;12.20;;
59824;SDS011;45703;50.898;6.054;2022-12-05T10:46:21;19.58;;;11.60;;
59824;SDS011;45703;50.898;6.054;2022-12-05T10:48:48;19.50;;;11.77;;
59824;SDS011;45703;50.898;6.054;2022-12-05T10:51:22;23.60;;;13.10;;
59824;SDS011;45703;50.898;6.054;2022-12-05T10:53:50;23.38;;;13.13;;
59824;SDS011;45703;50.898;6.054;2022-12-05T10:59:16;22.02;;;13.05;;
59824;SDS011;45703;50.898;6.054;2022-12-05T11:01:51;20.73;;;11.48;;
59824;SDS011;45703;50.898;6.054;2022-12-05T11:10:25;23.10;;;11.98;;
59824;SDS011;45703;50.898;6.054;2022-12-05T11:13:02;20.10;;;12.68;;
59824;SDS011;45703;50.898;6.054;2022-12-05T11:15:45;21.10;;;12.32;;
59824;SDS011;45703;50.898;6.054;2022-12-05T11:18:21;21.08;;;12.00;;
59824;SDS011;45703;50.898;6.054;2022-12-05T11:21:08;20.00;;;12.05;;
59824;SDS011;45703;50.898;6.054;2022-12-05T11:23:55;21.65;;;12.38;;
59824;SDS011;45703;50.898;6.054;2022-12-05T11:26:44;21.58;;;12.63;;
59824;SDS011;45703;50.898;6.054;2022-12-05T11:31:59;21.25;;;11.80;;
59824;SDS011;45703;50.898;6.054;2022-12-05T11:34:32;23.40;;;12.93;;
59824;SDS011;45703;50.898;6.054;2022-12-05T11:37:13;22.70;;;12.35;;
59824;SDS011;45703;50.898;6.054;2022-12-05T11:39:47;22.40;;;12.40;;
59824;SDS011;45703;50.898;6.054;2022-12-05T11:48:20;22.95;;;13.80;;
59824;SDS011;45703;50.898;6.054;2022-12-05T11:59:07;24.80;;;14.60;;
59824;SDS011;45703;50.898;6.054;2022-12-05T12:10:16;24.33;;;14.07;;
59824;SDS011;45703;50.898;6.054;2022-12-05T12:15:44;25.38;;;14.02;;
59824;SDS011;45703;50.898;6.054;2022-12-05T12:24:14;26.85;;;14.27;;
59824;SDS011;45703;50.898;6.054;2022-12-05T12:27:22;22.92;;;13.20;;
59824;SDS011;45703;50.898;6.054;2022-12-05T12:30:19;24.35;;;13.07;;
59824;SDS011;45703;50.898;6.054;2022-12-05T12:32:56;25.83;;;14.50;;
59824;SDS011;45703;50.898;6.054;2022-12-05T12:51:57;25.95;;;15.07;;
59824;SDS011;45703;50.898;6.054;2022-12-05T12:54:34;27.67;;;15.85;;
59824;SDS011;45703;50.898;6.054;2022-12-05T13:06:12;26.13;;;14.00;;
59824;SDS011;45703;50.898;6.054;2022-12-05T13:08:43;26.48;;;14.18;;
59824;SDS011;45703;50.898;6.054;2022-12-05T13:11:14;28.85;;;15.35;;
59824;SDS011;45703;50.898;6.054;2022-12-05T13:13:43;25.80;;;15.00;;
59824;SDS011;45703;50.898;6.054;2022-12-05T13:16:18;24.33;;;14.30;;
59824;SDS011;45703;50.898;6.054;2022-12-05T13:18:51;24.88;;;14.40;;
59824;SDS011;45703;50.898;6.054;2022-12-05T13:21:22;27.25;;;15.30;;
59824;SDS011;45703;50.898;6.054;2022-12-05T13:23:52;23.73;;;14.18;;
59824;SDS011;45703;50.898;6.054;2022-12-05T13:26:21;25.65;;;14.80;;
59824;SDS011;45703;50.898;6.054;2022-12-05T13:28:52;23.83;;;14.98;;
59824;SDS011;45703;50.898;6.054;2022-12-05T13:31:38;26.83;;;14.55;;
59824;SDS011;45703;50.898;6.054;2022-12-05T13:36:51;24.95;;;14.75;;
59824;SDS011;45703;50.898;6.054;2022-12-05T13:39:36;28.45;;;14.85;;
59824;SDS011;45703;50.898;6.054;2022-12-05T13:42:22;26.67;;;15.27;;
59824;SDS011;45703;50.898;6.054;2022-12-05T13:47:33;25.55;;;14.77;;
59824;SDS011;45703;50.898;6.054;2022-12-05T13:52:53;27.60;;;15.73;;
59824;SDS011;45703;50.898;6.054;2022-12-05T13:57:48;24.55;;;13.88;;
59824;SDS011;45703;50.898;6.054;2022-12-05T14:02:52;24.35;;;14.32;;
59824;SDS011;45703;50.898;6.054;2022-12-05T14:07:45;22.55;;;13.23;;
59824;SDS011;45703;50.898;6.054;2022-12-05T14:15:24;21.85;;;13.27;;
59824;SDS011;45703;50.898;6.054;2022-12-05T14:17:50;22.17;;;13.52;;
59824;SDS011;45703;50.898;6.054;2022-12-05T14:20:34;22.00;;;12.52;;
59824;SDS011;45703;50.898;6.054;2022-12-05T14:23:34;23.75;;;13.38;;
59824;SDS011;45703;50.898;6.054;2022-12-05T14:29:26;25.45;;;13.77;;
59824;SDS011;45703;50.898;6.054;2022-12-05T14:35:03;21.10;;;12.70;;
59824;SDS011;45703;50.898;6.054;2022-12-05T14:40:25;21.58;;;12.68;;
59824;SDS011;45703;50.898;6.054;2022-12-05T14:42:56;21.58;;;12.75;;
59824;SDS011;45703;50.898;6.054;2022-12-05T14:47:56;21.15;;;13.43;;
59824;SDS011;45703;50.898;6.054;2022-12-05T14:56:22;23.92;;;13.25;;
59824;SDS011;45703;50.898;6.054;2022-12-05T14:58:55;21.20;;;13.07;;
59824;SDS011;45703;50.898;6.054;2022-12-05T15:01:30;22.73;;;12.52;;
59824;SDS011;45703;50.898;6.054;2022-12-05T15:04:29;23.27;;;12.55;;
59824;SDS011;45703;50.898;6.054;2022-12-05T15:07:15;23.25;;;13.57;;
59824;SDS011;45703;50.898;6.054;2022-12-05T15:17:51;21.05;;;12.65;;
59824;SDS011;45703;50.898;6.054;2022-12-05T15:20:40;22.42;;;12.65;;
59824;SDS011;45703;50.898;6.054;2022-12-05T15:26:04;21.38;;;12.23;;
59824;SDS011;45703;50.898;6.054;2022-12-05T15:28:51;20.38;;;12.68;;
59824;SDS011;45703;50.898;6.054;2022-12-05T15:31:26;21.85;;;12.73;;
59824;SDS011;45703;50.898;6.054;2022-12-05T15:33:57;19.83;;;12.13;;
59824;SDS011;45703;50.898;6.054;2022-12-05T15:36:33;21.50;;;11.80;;
59824;SDS011;45703;50.898;6.054;2022-12-05T15:39:24;20.90;;;11.75;;
59824;SDS011;45703;50.898;6.054;2022-12-05T15:41:51;18.63;;;11.68;;
59824;SDS011;45703;50.898;6.054;2022-12-05T15:44:18;20.02;;;12.07;;
59824;SDS011;45703;50.898;6.054;2022-12-05T15:46:50;23.00;;;12.85;;
59824;SDS011;45703;50.898;6.054;2022-12-05T15:49:25;20.70;;;11.80;;
59824;SDS011;45703;50.898;6.054;2022-12-05T15:51:54;19.85;;;12.43;;
59824;SDS011;45703;50.898;6.054;2022-12-05T15:54:34;20.77;;;12.70;;
59824;SDS011;45703;50.898;6.054;2022-12-05T15:59:51;19.98;;;12.05;;
59824;SDS011;45703;50.898;6.054;2022-12-05T16:02:38;21.70;;;13.02;;
59824;SDS011;45703;50.898;6.054;2022-12-05T16:05:28;19.05;;;11.57;;
59824;SDS011;45703;50.898;6.054;2022-12-05T16:08:00;18.58;;;11.43;;
59824;SDS011;45703;50.898;6.054;2022-12-05T16:10:28;19.98;;;12.02;;
59824;SDS011;45703;50.898;6.054;2022-12-05T16:12:54;19.85;;;12.13;;
59824;SDS011;45703;50.898;6.054;2022-12-05T16:15:26;18.95;;;11.23;;
59824;SDS011;45703;50.898;6.054;2022-12-05T16:17:56;20.38;;;11.68;;
59824;SDS011;45703;50.898;6.054;2022-12-05T16:20:28;20.85;;;11.93;;
59824;SDS011;45703;50.898;6.054;2022-12-05T16:23:02;18.42;;;11.65;;
59824;SDS011;45703;50.898;6.054;2022-12-05T16:25:31;19.38;;;11.85;;
59824;SDS011;45703;50.898;6.054;2022-12-05T16:30:33;18.63;;;11.70;;
59824;SDS011;45703;50.898;6.054;2022-12-05T16:33:06;18.92;;;12.20;;
59824;SDS011;45703;50.898;6.054;2022-12-05T16:35:39;18.30;;;10.95;;
59824;SDS011;45703;50.898;6.054;2022-12-05T16:45:44;18.95;;;10.35;;
59824;SDS011;45703;50.898;6.054;2022-12-05T16:48:18;15.85;;;9.90;;
59824;SDS011;45703;50.898;6.054;2022-12-05T16:50:47;16.58;;;10.18;;
59824;SDS011;45703;50.898;6.054;2022-12-05T16:53:16;17.95;;;10.05;;
59824;SDS011;45703;50.898;6.054;2022-12-05T16:58:54;15.63;;;9.00;;
59824;SDS011;45703;50.898;6.054;2022-12-05T17:01:14;15.43;;;8.98;;
59824;SDS011;45703;50.898;6.054;2022-12-05T17:03:45;15.98;;;10.13;;
59824;SDS011;45703;50.898;6.054;2022-12-05T17:06:11;16.50;;;9.77;;
59824;SDS011;45703;50.898;6.054;2022-12-05T17:08:37;17.15;;;10.55;;
59824;SDS011;45703;50.898;6.054;2022-12-05T17:11:02;17.02;;;9.57;;
59824;SDS011;45703;50.898;6.054;2022-12-05T17:13:29;14.88;;;9.35;;
59824;SDS011;45703;50.898;6.054;2022-12-05T17:15:56;15.15;;;9.63;;
59824;SDS011;45703;50.898;6.054;2022-12-05T17:18:21;16.80;;;9.75;;
59824;SDS011;45703;50.898;6.054;2022-12-05T17:20:50;14.80;;;9.10;;
59824;SDS011;45703;50.898;6.054;2022-12-05T17:23:25;15.25;;;9.18;;
59824;SDS011;45703;50.898;6.054;2022-12-05T17:25:52;13.15;;;8.80;;
59824;SDS011;45703;50.898;6.054;2022-12-05T17:28:19;17.13;;;9.68;;
59824;SDS011;45703;50.898;6.054;2022-12-05T17:30:45;15.13;;;9.20;;
59824;SDS011;45703;50.898;6.054;2022-12-05T17:33:11;13.88;;;8.95;;
59824;SDS011;45703;50.898;6.054;2022-12-05T17:35:38;16.35;;;9.35;;
59824;SDS011;45703;50.898;6.054;2022-12-05T17:38:04;13.00;;;8.27;;
59824;SDS011;45703;50.898;6.054;2022-12-05T17:40:30;15.18;;;9.15;;
59824;SDS011;45703;50.898;6.054;2022-12-05T17:42:56;19.15;;;9.48;;
59824;SDS011;45703;50.898;6.054;2022-12-05T17:45:22;14.95;;;8.82;;
59824;SDS011;45703;50.898;6.054;2022-12-05T17:47:48;15.15;;;9.23;;
59824;SDS011;45703;50.898;6.054;2022-12-05T17:50:14;13.60;;;8.70;;
59824;SDS011;45703;50.898;6.054;2022-12-05T17:52:41;14.77;;;8.48;;
59824;SDS011;45703;50.898;6.054;2022-12-05T17:55:12;14.95;;;8.60;;
59824;SDS011;45703;50.898;6.054;2022-12-05T17:57:41;15.38;;;9.48;;
59824;SDS011;45703;50.898;6.054;2022-12-05T18:00:07;15.10;;;9.05;;